createdAt,value
2022-10-17T00:01:25.123Z,5.07
2022-10-17T00:03:52.288Z,4.80
2022-10-17T00:06:19.588Z,4.93
2022-10-17T00:08:47.012Z,5.23
2022-10-17T00:11:17.562Z,4.53
2022-10-17T00:13:45.949Z,5.40
2022-10-17T00:16:13.458Z,5.20
2022-10-17T00:18:42.962Z,5.20
2022-10-17T00:21:18.025Z,5.27
2022-10-17T00:23:45.741Z,5.30
2022-10-17T00:26:13.811Z,5.10
2022-10-17T00:28:41.054Z,5.37
2022-10-17T00:31:10.835Z,5.40
2022-10-17T00:33:40.264Z,5.13
2022-10-17T00:36:13.516Z,5.27
2022-10-17T00:38:42.316Z,5.80
2022-10-17T00:41:16.178Z,5.50
2022-10-17T00:44:01.875Z,5.33
2022-10-17T00:46:39.135Z,5.10
2022-10-17T00:49:11.445Z,4.90
2022-10-17T00:51:49.640Z,4.97
2022-10-17T00:54:19.402Z,5.43
2022-10-17T00:56:47.889Z,5.67
2022-10-17T00:59:17.855Z,5.47
2022-10-17T01:02:03.408Z,5.03
2022-10-17T01:04:30.952Z,5.37
2022-10-17T01:06:58.508Z,5.37
2022-10-17T01:09:26.216Z,5.20
2022-10-17T01:12:14.633Z,5.47
2022-10-17T01:15:07.348Z,5.37
2022-10-17T01:17:40.555Z,4.87
2022-10-17T01:20:26.230Z,5.60
2022-10-17T01:23:22.113Z,5.30
2022-10-17T01:26:37.196Z,5.63
2022-10-17T01:29:24.549Z,5.80
2022-10-17T01:32:13.178Z,5.30
2022-10-17T01:34:57.877Z,5.53
2022-10-17T01:37:35.720Z,5.20
2022-10-17T01:40:25.715Z,5.27
2022-10-17T01:43:18.075Z,5.30
2022-10-17T01:46:00.644Z,5.60
2022-10-17T01:48:35.449Z,5.17
2022-10-17T01:51:11.581Z,5.27
2022-10-17T01:53:47.096Z,5.47
2022-10-17T01:56:15.771Z,5.40
2022-10-17T01:58:53.065Z,5.00
2022-10-17T02:01:22.167Z,4.53
2022-10-17T02:03:51.171Z,5.10
2022-10-17T02:06:20.863Z,5.17
2022-10-17T02:08:51.659Z,4.87
2022-10-17T02:11:24.146Z,4.83
2022-10-17T02:14:10.022Z,4.87
2022-10-17T02:17:04.319Z,4.07
2022-10-17T02:19:38.913Z,4.43
2022-10-17T02:22:13.717Z,4.43
2022-10-17T02:25:14.809Z,4.33
2022-10-17T02:28:01.821Z,4.43
2022-10-17T02:30:42.300Z,4.43
2022-10-17T02:33:12.133Z,4.10
2022-10-17T02:35:44.738Z,4.63
2022-10-17T02:38:15.891Z,4.70
2022-10-17T02:40:45.087Z,4.07
2022-10-17T02:43:15.022Z,4.33
2022-10-17T02:45:42.247Z,4.10
2022-10-17T02:48:40.673Z,4.50
2022-10-17T02:51:19.780Z,4.33
2022-10-17T02:54:11.506Z,4.43
2022-10-17T02:56:46.573Z,4.50
2022-10-17T02:59:17.643Z,4.07
2022-10-17T03:01:45.077Z,4.17
2022-10-17T03:04:14.546Z,4.53
2022-10-17T03:06:42.102Z,4.43
2022-10-17T03:09:09.336Z,4.33
2022-10-17T03:11:36.500Z,4.17
2022-10-17T03:14:06.338Z,4.40
2022-10-17T03:16:33.500Z,4.00
2022-10-17T03:19:00.647Z,4.67
2022-10-17T03:21:27.826Z,4.20
2022-10-17T03:23:54.997Z,4.53
2022-10-17T03:26:22.322Z,4.00
2022-10-17T03:28:51.988Z,4.00
2022-10-17T03:31:22.213Z,4.30
2022-10-17T03:33:49.429Z,4.00
2022-10-17T03:36:20.407Z,4.33
2022-10-17T03:38:48.179Z,4.20
2022-10-17T03:41:15.540Z,3.73
2022-10-17T03:43:42.861Z,4.10
2022-10-17T03:46:12.333Z,3.90
2022-10-17T03:48:44.338Z,3.80
2022-10-17T03:51:12.027Z,4.47
2022-10-17T03:53:39.203Z,4.13
2022-10-17T03:56:21.392Z,4.67
2022-10-17T03:58:49.015Z,4.07
2022-10-17T04:01:17.624Z,4.03
2022-10-17T04:03:48.372Z,4.17
2022-10-17T04:06:15.501Z,4.07
2022-10-17T04:08:42.899Z,4.13
2022-10-17T04:11:17.645Z,3.90
2022-10-17T04:13:45.762Z,3.87
2022-10-17T04:16:16.088Z,4.27
2022-10-17T04:18:45.610Z,3.90
2022-10-17T04:21:15.122Z,4.05
2022-10-17T04:23:42.321Z,3.90
2022-10-17T04:26:09.565Z,4.40
2022-10-17T04:31:16.684Z,4.03
2022-10-17T04:33:44.680Z,4.25
2022-10-17T04:36:13.816Z,4.20
2022-10-17T04:38:41.282Z,4.27
2022-10-17T04:41:14.929Z,3.90
2022-10-17T04:43:48.544Z,4.13
2022-10-17T04:46:18.385Z,4.20
2022-10-17T04:48:45.599Z,4.20
2022-10-17T04:51:18.769Z,3.83
2022-10-17T04:53:50.389Z,3.90
2022-10-17T04:56:21.203Z,4.10
2022-10-17T04:58:52.025Z,4.23
2022-10-17T05:01:23.681Z,3.80
2022-10-17T05:03:53.339Z,3.70
2022-10-17T05:06:27.906Z,4.40
2022-10-17T05:08:55.327Z,4.00
2022-10-17T05:11:24.790Z,4.37
2022-10-17T05:14:02.350Z,3.65
2022-10-17T05:16:32.494Z,4.13
2022-10-17T05:19:02.425Z,4.07
2022-10-17T05:24:09.170Z,4.80
2022-10-17T05:26:36.395Z,4.40
2022-10-17T05:29:04.374Z,4.13
2022-10-17T05:31:31.889Z,3.78
2022-10-17T05:34:07.077Z,4.10
2022-10-17T05:36:36.382Z,4.20
2022-10-17T05:39:06.064Z,4.23
2022-10-17T05:41:33.197Z,3.95
2022-10-17T05:44:03.209Z,4.50
2022-10-17T05:46:35.864Z,3.70
2022-10-17T05:49:14.876Z,3.90
2022-10-17T05:51:46.612Z,4.00
2022-10-17T05:54:13.797Z,3.90
2022-10-17T05:56:40.969Z,3.77
2022-10-17T05:59:08.115Z,3.70
2022-10-17T06:01:35.317Z,4.13
2022-10-17T06:04:02.516Z,4.28
2022-10-17T06:06:29.744Z,4.15
2022-10-17T06:08:56.880Z,4.30
2022-10-17T06:11:24.139Z,4.37
2022-10-17T06:13:51.321Z,4.17
2022-10-17T06:16:18.541Z,3.77
2022-10-17T06:18:45.769Z,3.92
2022-10-17T06:21:17.161Z,3.78
2022-10-17T06:23:44.351Z,4.20
2022-10-17T06:26:13.708Z,4.00
2022-10-17T06:28:43.422Z,4.07
2022-10-17T06:31:16.741Z,3.73
2022-10-17T06:33:43.931Z,3.80
2022-10-17T06:36:13.873Z,4.03
2022-10-17T06:38:41.368Z,4.18
2022-10-17T06:41:13.415Z,4.33
2022-10-17T06:43:48.655Z,4.68
2022-10-17T06:46:17.944Z,3.80
2022-10-17T06:48:47.421Z,3.63
2022-10-17T06:51:17.058Z,3.72
2022-10-17T06:53:44.254Z,4.10
2022-10-17T06:56:11.681Z,3.80
2022-10-17T06:58:41.560Z,3.97
2022-10-17T07:01:11.703Z,4.47
2022-10-17T07:03:40.257Z,4.40
2022-10-17T07:06:07.729Z,4.25
2022-10-17T07:08:34.905Z,3.63
2022-10-17T07:11:18.077Z,3.63
2022-10-17T07:13:47.597Z,3.87
2022-10-17T07:16:16.015Z,3.40
2022-10-17T07:18:43.651Z,4.00
2022-10-17T07:21:13.195Z,3.55
2022-10-17T07:23:41.452Z,3.92
2022-10-17T07:26:11.360Z,3.70
2022-10-17T07:28:41.316Z,4.10
2022-10-17T07:31:11.422Z,3.63
2022-10-17T07:33:41.774Z,3.47
2022-10-17T07:36:09.387Z,3.50
2022-10-17T07:38:36.884Z,3.78
2022-10-17T07:41:06.730Z,3.80
2022-10-17T07:43:34.610Z,4.32
2022-10-17T07:46:02.535Z,3.80
2022-10-17T07:48:32.242Z,4.40
2022-10-17T07:51:02.905Z,5.28
2022-10-17T07:53:30.624Z,5.82
2022-10-17T07:55:58.146Z,5.25
2022-10-17T07:58:25.909Z,4.68
2022-10-17T08:00:53.313Z,4.13
2022-10-17T08:03:20.587Z,4.50
2022-10-17T08:05:47.840Z,4.60
2022-10-17T08:08:15.053Z,4.57
2022-10-17T08:10:42.264Z,4.40
2022-10-17T08:13:09.637Z,3.90
2022-10-17T08:15:38.829Z,4.00
2022-10-17T08:18:06.118Z,3.80
2022-10-17T08:20:33.487Z,3.70
2022-10-17T08:23:00.754Z,4.30
2022-10-17T08:25:28.001Z,4.32
2022-10-17T08:27:55.292Z,4.72
2022-10-17T08:30:25.035Z,4.75
2022-10-17T08:32:52.344Z,6.38
2022-10-17T08:35:21.423Z,6.10
2022-10-17T08:37:50.921Z,6.75
2022-10-17T08:40:26.271Z,5.32
2022-10-17T08:43:33.293Z,4.55
2022-10-17T08:46:06.685Z,4.35
2022-10-17T08:48:42.758Z,3.72
2022-10-17T08:51:24.633Z,4.80
2022-10-17T08:54:16.868Z,5.15
2022-10-17T08:56:48.914Z,4.75
2022-10-17T08:59:28.559Z,5.30
2022-10-17T09:02:22.823Z,4.78
2022-10-17T09:05:14.665Z,4.45
2022-10-17T09:08:09.188Z,4.45
2022-10-17T09:10:55.472Z,4.82
2022-10-17T09:13:53.408Z,5.35
2022-10-17T09:16:49.179Z,4.28
2022-10-17T09:19:43.009Z,5.03
2022-10-17T09:22:17.038Z,4.85
2022-10-17T09:24:55.885Z,4.68
2022-10-17T09:28:04.989Z,5.00
2022-10-17T09:30:45.788Z,5.40
2022-10-17T09:33:35.373Z,5.57
2022-10-17T09:36:24.821Z,5.50
2022-10-17T09:39:17.267Z,5.93
2022-10-17T09:41:51.722Z,6.15
2022-10-17T09:44:44.045Z,6.00
2022-10-17T09:47:24.012Z,5.93
2022-10-17T09:49:51.718Z,5.93
2022-10-17T09:52:33.231Z,6.28
2022-10-17T09:55:15.379Z,5.30
2022-10-17T09:58:03.285Z,5.47
2022-10-17T10:00:42.620Z,5.32
2022-10-17T10:03:09.728Z,5.90
2022-10-17T10:05:36.999Z,5.40
2022-10-17T10:08:11.578Z,5.18
2022-10-17T10:10:42.960Z,5.30
2022-10-17T10:13:13.231Z,4.90
2022-10-17T10:15:49.428Z,5.63
2022-10-17T10:18:33.262Z,4.95
2022-10-17T10:21:07.128Z,4.72
2022-10-17T10:23:40.175Z,5.13
2022-10-17T10:26:13.262Z,4.47
2022-10-17T10:28:42.054Z,4.40
2022-10-17T10:31:10.189Z,4.80
2022-10-17T10:33:45.903Z,4.32
2022-10-17T10:36:16.519Z,4.72
2022-10-17T10:38:55.104Z,5.30
2022-10-17T10:41:27.726Z,4.75
2022-10-17T10:43:56.287Z,4.60
2022-10-17T10:46:28.271Z,4.70
2022-10-17T10:49:00.974Z,5.20
2022-10-17T10:51:43.398Z,5.00
2022-10-17T10:54:21.717Z,5.50
2022-10-17T10:56:58.048Z,4.97
2022-10-17T10:59:34.109Z,5.40
2022-10-17T11:02:05.065Z,5.68
2022-10-17T11:04:59.302Z,5.65
2022-10-17T11:07:36.658Z,5.75
2022-10-17T11:10:25.296Z,5.97
2022-10-17T11:12:55.230Z,5.63
2022-10-17T11:15:31.229Z,5.70
2022-10-17T11:18:08.030Z,5.60
2022-10-17T11:20:58.206Z,6.57
2022-10-17T11:23:39.696Z,5.80
2022-10-17T11:26:12.147Z,5.45
2022-10-17T11:28:39.328Z,5.38
2022-10-17T11:31:13.317Z,4.90
2022-10-17T11:33:54.844Z,5.22
2022-10-17T11:36:28.254Z,5.03
2022-10-17T11:39:11.021Z,4.63
2022-10-17T11:41:54.174Z,4.10
2022-10-17T11:44:35.601Z,4.35
2022-10-17T11:47:30.009Z,4.40
2022-10-17T11:53:19.284Z,3.72
2022-10-17T11:55:47.325Z,3.92
2022-10-17T11:58:31.856Z,4.00
2022-10-17T12:01:23.972Z,3.63
2022-10-17T12:04:14.009Z,3.80
2022-10-17T12:07:01.158Z,3.55
2022-10-17T12:09:48.931Z,3.92
2022-10-17T12:12:30.618Z,3.88
2022-10-17T12:15:13.443Z,3.70
2022-10-17T12:17:45.769Z,3.75
2022-10-17T12:20:35.588Z,3.95
2022-10-17T12:23:05.758Z,3.90
2022-10-17T12:25:39.153Z,3.83
2022-10-17T12:28:26.406Z,4.15
2022-10-17T12:31:00.595Z,3.75
2022-10-17T12:33:51.219Z,3.87
2022-10-17T12:36:47.620Z,3.50
2022-10-17T12:39:15.886Z,4.00
2022-10-17T12:41:46.582Z,4.20
2022-10-17T12:44:13.995Z,4.00
2022-10-17T12:46:49.220Z,4.90
2022-10-17T12:49:37.364Z,4.45
2022-10-17T12:52:29.739Z,4.50
2022-10-17T12:55:11.402Z,5.20
2022-10-17T12:57:55.515Z,7.45
2022-10-17T13:00:22.692Z,8.07
2022-10-17T13:02:53.973Z,4.97
2022-10-17T13:05:29.675Z,4.53
2022-10-17T13:07:59.980Z,4.30
2022-10-17T13:10:30.058Z,5.03
2022-10-17T13:13:06.211Z,4.53
2022-10-17T13:15:34.725Z,3.85
2022-10-17T13:18:02.300Z,4.50
2022-10-17T13:20:31.988Z,4.75
2022-10-17T13:22:59.818Z,4.85
2022-10-17T13:25:28.098Z,4.88
2022-10-17T13:28:13.658Z,4.28
2022-10-17T13:30:47.852Z,4.35
2022-10-17T13:33:31.224Z,4.57
2022-10-17T13:36:02.758Z,4.47
2022-10-17T13:38:32.827Z,4.53
2022-10-17T13:41:23.214Z,4.85
2022-10-17T13:43:51.498Z,4.63
2022-10-17T13:46:39.694Z,4.40
2022-10-17T13:49:34.819Z,4.88
2022-10-17T13:52:04.782Z,5.07
2022-10-17T13:54:40.186Z,4.15
2022-10-17T13:57:25.722Z,4.13
2022-10-17T14:00:10.106Z,4.57
2022-10-17T14:02:41.442Z,3.72
2022-10-17T14:05:17.859Z,4.30
2022-10-17T14:08:11.294Z,4.10
2022-10-17T14:10:41.230Z,3.92
2022-10-17T14:13:19.919Z,3.77
2022-10-17T14:15:47.622Z,4.10
2022-10-17T14:18:19.634Z,4.90
2022-10-17T14:21:29.153Z,4.45
2022-10-17T14:23:37.816Z,4.05
2022-10-17T14:26:25.440Z,3.83
2022-10-17T14:29:18.533Z,3.67
2022-10-17T14:31:47.921Z,3.58
2022-10-17T14:34:38.468Z,4.03
2022-10-17T14:37:31.615Z,3.72
2022-10-17T14:40:00.954Z,3.55
2022-10-17T14:42:28.595Z,3.45
2022-10-17T14:45:06.611Z,3.80
2022-10-17T14:47:49.493Z,3.70
2022-10-17T14:50:31.904Z,3.78
2022-10-17T14:53:12.175Z,4.03
2022-10-17T14:55:41.260Z,4.07
2022-10-17T14:58:19.009Z,4.10
2022-10-17T15:00:46.247Z,3.90
2022-10-17T15:03:13.800Z,4.60
2022-10-17T15:05:41.357Z,4.25
2022-10-17T15:08:15.061Z,4.20
2022-10-17T15:10:43.403Z,4.38
2022-10-17T15:13:29.047Z,4.32
2022-10-17T15:16:00.541Z,3.85
2022-10-17T15:18:27.697Z,4.13
2022-10-17T15:21:04.590Z,3.97
2022-10-17T15:23:33.883Z,3.53
2022-10-17T15:26:03.605Z,3.25
2022-10-17T15:28:32.934Z,3.70
2022-10-17T15:31:02.398Z,3.55
2022-10-17T15:33:29.557Z,3.55
2022-10-17T15:38:28.951Z,3.50
2022-10-17T15:40:56.162Z,3.65
2022-10-17T15:43:23.336Z,3.20
2022-10-17T15:45:50.540Z,3.47
2022-10-17T15:48:22.631Z,3.90
2022-10-17T15:50:49.786Z,3.67
2022-10-17T15:53:17.031Z,3.72
2022-10-17T15:55:44.242Z,3.90
2022-10-17T15:58:16.590Z,3.83
2022-10-17T16:00:44.626Z,4.38
2022-10-17T16:03:16.730Z,4.28
2022-10-17T16:05:49.083Z,3.92
2022-10-17T16:08:16.426Z,4.15
2022-10-17T16:10:43.559Z,4.10
2022-10-17T16:13:21.019Z,4.30
2022-10-17T16:15:48.356Z,4.15
2022-10-17T16:18:17.997Z,4.30
2022-10-17T16:20:47.677Z,4.50
2022-10-17T16:23:19.341Z,4.95
2022-10-17T16:25:48.592Z,4.45
2022-10-17T16:28:15.939Z,4.63
2022-10-17T16:30:46.021Z,5.07
2022-10-17T16:33:13.480Z,5.32
2022-10-17T16:35:40.631Z,5.60
2022-10-17T16:38:08.032Z,5.70
2022-10-17T16:40:37.774Z,5.40
2022-10-17T16:43:05.021Z,5.68
2022-10-17T16:45:32.219Z,5.53
2022-10-17T16:47:59.750Z,6.10
2022-10-17T16:50:31.225Z,5.45
2022-10-17T16:52:58.353Z,5.28
2022-10-17T16:55:25.578Z,5.63
2022-10-17T16:57:55.195Z,5.68
2022-10-17T17:00:22.446Z,5.85
2022-10-17T17:02:49.699Z,5.70
2022-10-17T17:05:16.952Z,5.80
2022-10-17T17:07:44.161Z,5.03
2022-10-17T17:10:11.332Z,5.40
2022-10-17T17:12:38.581Z,5.20
2022-10-17T17:15:05.933Z,4.88
2022-10-17T17:17:48.708Z,4.72
2022-10-17T17:20:16.688Z,4.77
2022-10-17T17:22:43.849Z,4.67
2022-10-17T17:25:11.053Z,3.97
2022-10-17T17:27:38.231Z,4.35
2022-10-17T17:30:05.855Z,4.10
2022-10-17T17:32:33.226Z,3.75
2022-10-17T17:35:00.361Z,2.92
2022-10-17T17:37:27.822Z,3.05
2022-10-17T17:39:55.209Z,3.07
2022-10-17T17:42:22.448Z,3.08
2022-10-17T17:44:50.751Z,2.95
2022-10-17T17:47:18.134Z,2.60
2022-10-17T17:49:48.159Z,2.97
2022-10-17T17:52:15.358Z,2.13
2022-10-17T17:54:42.570Z,2.10
2022-10-17T17:57:09.731Z,2.53
2022-10-17T17:59:38.837Z,2.20
2022-10-17T18:02:06.826Z,2.40
2022-10-17T18:04:34.493Z,2.40
2022-10-17T18:07:01.821Z,2.40
2022-10-17T18:09:29.081Z,2.08
2022-10-17T18:11:56.263Z,1.90
2022-10-17T18:14:26.616Z,2.40
2022-10-17T18:16:53.729Z,2.17
2022-10-17T18:19:22.279Z,2.40
2022-10-17T18:21:51.715Z,2.67
2022-10-17T18:24:19.168Z,2.23
2022-10-17T18:26:46.412Z,2.10
2022-10-17T18:29:13.578Z,1.90
2022-10-17T18:31:40.955Z,2.17
2022-10-17T18:34:10.526Z,1.97
2022-10-17T18:36:40.019Z,2.10
2022-10-17T18:39:09.605Z,1.93
2022-10-17T18:41:36.788Z,2.00
2022-10-17T18:44:04.242Z,2.30
2022-10-17T18:46:40.463Z,1.97
2022-10-17T18:49:12.918Z,2.10
2022-10-17T18:51:45.117Z,2.30
2022-10-17T18:54:20.714Z,2.23
2022-10-17T18:56:53.546Z,2.00
2022-10-17T18:59:21.488Z,2.20
2022-10-17T19:01:50.906Z,1.80
2022-10-17T19:04:18.177Z,2.17
2022-10-17T19:06:45.483Z,1.97
2022-10-17T19:09:14.059Z,2.40
2022-10-17T19:11:42.890Z,2.00
2022-10-17T19:14:14.747Z,1.90
2022-10-17T19:16:45.886Z,2.27
2022-10-17T19:19:16.787Z,2.30
2022-10-17T19:21:44.797Z,2.10
2022-10-17T19:24:22.746Z,2.00
2022-10-17T19:26:53.417Z,2.47
2022-10-17T19:29:24.052Z,2.20
2022-10-17T19:34:27.725Z,2.60
2022-10-17T19:36:55.872Z,2.43
2022-10-17T19:39:23.902Z,2.28
2022-10-17T19:41:51.116Z,2.40
2022-10-17T19:44:22.919Z,2.85
2022-10-17T19:46:50.187Z,2.57
2022-10-17T19:49:17.897Z,2.57
2022-10-17T19:51:45.415Z,2.70
2022-10-17T19:54:12.944Z,2.77
2022-10-17T19:56:43.063Z,2.60
2022-10-17T19:59:14.435Z,2.70
2022-10-17T20:01:42.194Z,2.70
2022-10-17T20:04:10.953Z,2.53
2022-10-17T20:06:39.362Z,2.55
2022-10-17T20:09:08.881Z,2.83
2022-10-17T20:11:38.329Z,2.50
2022-10-17T20:14:06.747Z,2.70
2022-10-17T20:16:36.070Z,2.97
2022-10-17T20:19:09.726Z,2.80
2022-10-17T20:21:39.596Z,3.20
2022-10-17T20:24:11.107Z,3.20
2022-10-17T20:26:39.643Z,3.03
2022-10-17T20:29:15.003Z,2.80
2022-10-17T20:31:44.275Z,2.70
2022-10-17T20:34:16.830Z,3.10
2022-10-17T20:36:49.106Z,3.17
2022-10-17T20:39:20.406Z,3.30
2022-10-17T20:41:48.226Z,3.20
2022-10-17T20:44:15.523Z,3.00
2022-10-17T20:47:00.648Z,3.00
2022-10-17T20:49:33.655Z,3.63
2022-10-17T20:52:01.462Z,3.30
2022-10-17T20:54:28.895Z,3.33
2022-10-17T20:56:58.694Z,3.57
2022-10-17T20:59:28.302Z,3.30
2022-10-17T21:01:55.515Z,3.47
2022-10-17T21:04:44.859Z,3.30
2022-10-17T21:07:09.993Z,3.50
2022-10-17T21:09:39.501Z,3.70
2022-10-17T21:12:06.627Z,4.60
2022-10-17T21:14:33.779Z,3.27
2022-10-17T21:17:04.802Z,3.53
2022-10-17T21:19:32.733Z,3.80
2022-10-17T21:22:00.199Z,3.90
2022-10-17T21:24:27.764Z,3.70
2022-10-17T21:26:57.892Z,3.83
2022-10-17T21:29:25.158Z,4.07
2022-10-17T21:31:54.980Z,4.10
2022-10-17T21:34:26.353Z,4.10
2022-10-17T21:36:53.853Z,4.23
2022-10-17T21:39:22.916Z,4.10
2022-10-17T21:41:53.304Z,3.87
2022-10-17T21:44:25.049Z,3.80
2022-10-17T21:46:53.039Z,4.20
2022-10-17T21:49:25.150Z,4.30
2022-10-17T21:51:55.438Z,4.00
2022-10-17T21:54:23.537Z,4.07
2022-10-17T21:56:53.309Z,4.47
2022-10-17T21:59:20.533Z,4.90
2022-10-17T22:01:47.773Z,4.87
2022-10-17T22:04:18.454Z,4.50
2022-10-17T22:06:47.915Z,4.57
2022-10-17T22:09:24.488Z,4.83
2022-10-17T22:11:54.476Z,4.87
2022-10-17T22:14:23.093Z,4.63
2022-10-17T22:16:50.646Z,5.50
2022-10-17T22:19:21.336Z,5.20
2022-10-17T22:21:48.878Z,4.83
2022-10-17T22:24:18.070Z,5.00
2022-10-17T22:26:45.688Z,4.70
2022-10-17T22:29:13.282Z,4.63
2022-10-17T22:31:40.830Z,4.83
2022-10-17T22:34:08.547Z,4.57
2022-10-17T22:36:36.189Z,4.87
2022-10-17T22:39:04.551Z,4.97
2022-10-17T22:41:32.055Z,5.10
2022-10-17T22:43:59.454Z,5.10
2022-10-17T22:46:26.726Z,5.20
2022-10-17T22:48:53.973Z,5.10
2022-10-17T22:51:21.402Z,5.67
2022-10-17T22:53:51.245Z,4.30
2022-10-17T22:56:21.145Z,4.93
2022-10-17T22:58:51.400Z,4.97
2022-10-17T23:01:23.108Z,5.13
2022-10-17T23:03:51.917Z,5.30
2022-10-17T23:06:22.321Z,5.00
2022-10-17T23:08:49.595Z,5.47
2022-10-17T23:11:17.107Z,5.90
2022-10-17T23:13:44.497Z,5.87
2022-10-17T23:16:11.685Z,5.23
2022-10-17T23:18:39.322Z,5.27
2022-10-17T23:21:07.341Z,5.73
2022-10-17T23:23:34.511Z,5.60
2022-10-17T23:26:10.814Z,5.77
2022-10-17T23:28:41.141Z,5.87
2022-10-17T23:31:12.579Z,5.60
2022-10-17T23:33:41.473Z,5.63
2022-10-17T23:36:10.615Z,5.30
2022-10-17T23:38:38.886Z,5.70
2022-10-17T23:41:06.234Z,5.37
2022-10-17T23:43:34.313Z,5.23
2022-10-17T23:46:02.752Z,5.50
2022-10-17T23:48:30.402Z,5.80
2022-10-17T23:50:57.791Z,5.37
2022-10-17T23:53:25.523Z,5.33
2022-10-17T23:55:55.196Z,5.67
2022-10-17T23:58:22.470Z,6.07
